Time;durP1;ratioP1;P1;durP2;ratioP2;P2;SDS_P1;SDS_P2;PMS_P1;PMS_P2;Temp;Humidity;BMP_temperature;BMP_pressure;BME280_temperature;BME280_humidity;BME280_pressure;Samples;Min_cycle;Max_cycle;Signal;HPM_P1;HPM_P2
2023/05/29 00:01:20;;;;;;;38.65;31.23;;;10.60;1.00;;;;;;5029297;28;20487;-62
2023/05/29 00:03:46;;;;;;;38.38;31.00;;;10.50;1.00;;;;;;5028515;28;20052;-62
2023/05/29 00:06:13;;;;;;;39.47;31.13;;;10.50;1.00;;;;;;5026012;28;20064;-62
2023/05/29 00:08:38;;;;;;;34.15;29.77;;;10.50;1.00;;;;;;5028595;28;20068;-62
2023/05/29 00:11:04;;;;;;;40.30;30.60;;;10.50;1.00;;;;;;5029059;28;20068;-62
2023/05/29 00:13:30;;;;;;;39.72;32.15;;;10.50;1.00;;;;;;5028054;28;20091;-62
2023/05/29 00:15:56;;;;;;;35.72;30.42;;;10.50;1.00;;;;;;5029110;28;20125;-61
2023/05/29 00:18:22;;;;;;;37.40;30.85;;;10.50;1.00;;;;;;5029056;28;20052;-61
2023/05/29 00:20:47;;;;;;;35.90;31.63;;;10.50;99.90;;;;;;5028664;28;20056;-62
2023/05/29 00:23:13;;;;;;;38.35;32.38;;;10.50;99.90;;;;;;5028919;28;20388;-63
2023/05/29 00:25:40;;;;;;;36.42;32.42;;;10.50;99.90;;;;;;5027259;28;20045;-62
2023/05/29 00:28:07;;;;;;;42.25;32.22;;;10.50;99.90;;;;;;5029201;28;20079;-62
2023/05/29 00:30:32;;;;;;;41.28;32.90;;;10.40;99.90;;;;;;5028975;28;20125;-62
2023/05/29 00:32:58;;;;;;;38.47;32.95;;;10.50;99.90;;;;;;5028620;28;20143;-62
2023/05/29 00:35:24;;;;;;;43.10;32.95;;;10.40;99.90;;;;;;5028758;28;20041;-62
2023/05/29 00:37:49;;;;;;;37.58;31.80;;;10.30;99.90;;;;;;5028886;28;20045;-62
2023/05/29 00:40:15;;;;;;;45.78;33.22;;;10.30;99.90;;;;;;5028743;28;20557;-62
2023/05/29 00:42:41;;;;;;;39.25;31.23;;;10.30;99.90;;;;;;5029537;28;20045;-62
2023/05/29 00:45:07;;;;;;;38.85;30.60;;;10.30;1.00;;;;;;5025915;28;20045;-62
2023/05/29 00:47:33;;;;;;;42.25;31.33;;;10.40;1.00;;;;;;5029053;28;20057;-62
2023/05/29 00:49:59;;;;;;;37.67;30.70;;;10.40;1.00;;;;;;5028365;28;20408;-62
2023/05/29 00:52:26;;;;;;;41.83;31.02;;;10.40;1.00;;;;;;5028867;28;20399;-62
2023/05/29 00:54:52;;;;;;;40.30;28.25;;;10.50;1.00;;;;;;5027329;28;20060;-62
2023/05/29 00:57:18;;;;;;;34.03;28.02;;;10.50;23.30;;;;;;5028824;28;20038;-62
2023/05/29 00:59:47;;;;;;;33.28;28.05;;;10.50;24.90;;;;;;5028688;28;20041;-62
2023/05/29 01:02:14;;;;;;;32.95;26.85;;;10.70;1.00;;;;;;5023058;28;20368;-62
2023/05/29 01:04:39;;;;;;;36.13;26.98;;;10.70;1.00;;;;;;5026942;28;20056;-62
2023/05/29 01:07:06;;;;;;;36.08;27.25;;;10.80;1.00;;;;;;5028156;28;20037;-62
2023/05/29 01:09:34;;;;;;;33.75;27.67;;;10.80;1.00;;;;;;5028679;28;20045;-62
2023/05/29 01:12:08;;;;;;;34.67;28.23;;;10.90;1.00;;;;;;5028684;28;20495;-62
2023/05/29 01:14:52;;;;;;;40.42;28.67;;;10.80;1.00;;;;;;5028524;28;20045;-62
2023/05/29 01:17:45;;;;;;;34.72;25.80;;;10.80;1.00;;;;;;5026956;28;20408;-62
2023/05/29 01:20:34;;;;;;;32.67;26.65;;;10.90;99.90;;;;;;5011181;28;20100;-62
2023/05/29 01:23:40;;;;;;;35.03;26.50;;;10.90;99.90;;;;;;5032116;28;20370;-62
2023/05/29 01:26:15;;;;;;;37.65;27.25;;;11.00;99.90;;;;;;5023740;28;20042;-62
2023/05/29 01:28:53;;;;;;;30.38;26.05;;;11.10;99.90;;;;;;5032455;28;20132;-62
2023/05/29 01:31:23;;;;;;;35.30;28.80;;;11.10;99.90;;;;;;5031101;28;20061;-62
2023/05/29 01:33:56;;;;;;;35.00;27.58;;;11.10;99.90;;;;;;5030993;28;20461;-62
2023/05/29 01:36:22;;;;;;;37.10;28.30;;;11.20;49.90;;;;;;5032377;28;20477;-62
2023/05/29 01:38:52;;;;;;;39.92;29.35;;;11.10;1.00;;;;;;5031967;28;20438;-62
2023/05/29 01:41:19;;;;;;;34.83;30.13;;;11.10;1.00;;;;;;5031817;28;20033;-62
2023/05/29 01:43:46;;;;;;;45.05;31.85;;;11.10;1.00;;;;;;5030675;28;20046;-62
2023/05/29 01:46:16;;;;;;;35.13;31.42;;;11.00;1.00;;;;;;5031390;28;20057;-62
2023/05/29 01:48:42;;;;;;;36.83;31.35;;;10.90;1.00;;;;;;5025059;28;20038;-62
2023/05/29 01:51:10;;;;;;;39.13;33.55;;;10.80;1.00;;;;;;5031368;28;20043;-62
2023/05/29 01:53:37;;;;;;;36.55;31.25;;;10.90;1.00;;;;;;5029907;28;20091;-63
2023/05/29 01:56:04;;;;;;;36.63;31.55;;;10.80;1.00;;;;;;5031376;28;20056;-62
2023/05/29 01:58:31;;;;;;;37.90;32.33;;;10.80;1.00;;;;;;5031893;28;20037;-62
2023/05/29 02:00:57;;;;;;;38.47;30.83;;;10.80;1.00;;;;;;5031447;28;20471;-62
2023/05/29 02:03:23;;;;;;;35.15;29.77;;;10.80;1.00;;;;;;5030854;28;20113;-62
2023/05/29 02:05:49;;;;;;;36.60;32.15;;;10.90;1.00;;;;;;5029814;28;20141;-62
2023/05/29 02:08:15;;;;;;;36.83;31.88;;;11.00;1.00;;;;;;5031289;28;20060;-62
2023/05/29 02:10:40;;;;;;;37.08;29.42;;;11.00;1.00;;;;;;5031963;28;20045;-62
2023/05/29 02:13:06;;;;;;;41.15;30.35;;;11.00;99.90;;;;;;5031363;28;20079;-62
2023/05/29 02:15:32;;;;;;;40.22;31.95;;;11.00;99.90;;;;;;5031039;28;20047;-62
2023/05/29 02:17:57;;;;;;;32.28;28.70;;;11.00;99.90;;;;;;5030762;28;20045;-62
2023/05/29 02:20:24;;;;;;;40.28;29.95;;;11.00;99.90;;;;;;5030319;28;20128;-62
2023/05/29 02:22:50;;;;;;;39.25;31.75;;;10.90;99.90;;;;;;5031293;28;20037;-62
2023/05/29 02:25:15;;;;;;;37.65;32.20;;;10.90;99.90;;;;;;5029009;28;20045;-62
2023/05/29 02:27:41;;;;;;;38.50;31.60;;;11.00;99.90;;;;;;5031345;28;20411;-62
2023/05/29 02:30:08;;;;;;;35.38;29.23;;;10.90;99.90;;;;;;5030946;28;20041;-62
2023/05/29 02:32:33;;;;;;;34.97;30.05;;;10.80;99.90;;;;;;5031059;28;20064;-62
2023/05/29 02:34:59;;;;;;;39.60;31.30;;;10.90;99.90;;;;;;5031351;28;20037;-62
2023/05/29 02:37:25;;;;;;;36.55;32.50;;;10.90;99.90;;;;;;5031578;28;20057;-62
2023/05/29 02:39:52;;;;;;;34.78;31.15;;;10.90;99.90;;;;;;5030387;28;20091;-62
2023/05/29 02:42:17;;;;;;;33.38;29.85;;;10.90;99.90;;;;;;5030899;28;20084;-62
2023/05/29 02:44:43;;;;;;;36.42;31.58;;;10.80;99.90;;;;;;5031151;28;20041;-62
2023/05/29 02:47:09;;;;;;;36.10;29.17;;;10.80;99.90;;;;;;5019256;28;20050;-62
2023/05/29 02:49:34;;;;;;;34.20;28.95;;;10.80;99.90;;;;;;5030823;28;20034;-62
2023/05/29 02:52:00;;;;;;;30.77;26.88;;;10.80;99.90;;;;;;5029003;28;20115;-62
2023/05/29 02:54:26;;;;;;;32.78;27.80;;;10.90;99.90;;;;;;5029145;28;20056;-62
2023/05/29 02:56:52;;;;;;;34.25;27.17;;;11.00;99.90;;;;;;5030742;28;20041;-62
2023/05/29 02:59:18;;;;;;;31.83;27.15;;;11.10;99.90;;;;;;5030262;28;20046;-62
2023/05/29 03:01:43;;;;;;;37.30;26.95;;;11.20;99.90;;;;;;5030529;28;20052;-62
2023/05/29 03:04:10;;;;;;;34.33;27.98;;;11.20;99.90;;;;;;5030591;28;20050;-62
2023/05/29 03:06:36;;;;;;;32.45;28.63;;;11.30;95.20;;;;;;5030660;28;20039;-62
2023/05/29 03:09:05;;;;;;;33.40;27.40;;;11.30;86.80;;;;;;5030070;28;20029;-62
2023/05/29 03:11:32;;;;;;;36.63;28.98;;;11.30;70.30;;;;;;5029970;28;20124;-62
2023/05/29 03:13:58;;;;;;;37.92;31.33;;;11.30;52.70;;;;;;5030068;28;20509;-62
2023/05/29 03:16:24;;;;;;;39.30;31.30;;;11.40;41.50;;;;;;5030309;28;20124;-62
2023/05/29 03:18:49;;;;;;;34.72;29.92;;;11.30;38.50;;;;;;5029144;28;20111;-62
2023/05/29 03:21:16;;;;;;;35.15;27.50;;;11.20;27.90;;;;;;5030296;28;20048;-62
2023/05/29 03:23:41;;;;;;;36.67;30.05;;;11.20;11.20;;;;;;5030409;28;20053;-62
2023/05/29 03:26:07;;;;;;;33.22;29.63;;;11.20;2.00;;;;;;5029618;28;20041;-62
2023/05/29 03:28:32;;;;;;;33.70;29.73;;;11.70;1.00;;;;;;5022139;28;20091;-62
2023/05/29 03:30:58;;;;;;;36.40;30.17;;;11.20;1.00;;;;;;5028974;28;20044;-62
2023/05/29 03:33:23;;;;;;;35.90;29.63;;;11.20;1.00;;;;;;5043898;28;20128;-62
2023/05/29 03:35:49;;;;;;;34.60;30.75;;;11.20;1.00;;;;;;5027175;28;20048;-62
2023/05/29 03:38:15;;;;;;;42.45;31.42;;;11.20;1.00;;;;;;5029916;28;20044;-62
2023/05/29 03:40:40;;;;;;;37.55;31.20;;;11.20;1.00;;;;;;5029361;28;20048;-62
2023/05/29 03:43:06;;;;;;;35.42;31.27;;;11.80;1.00;;;;;;5029033;28;20450;-62
2023/05/29 03:45:31;;;;;;;36.38;32.42;;;11.20;1.00;;;;;;5029648;28;20060;-62
2023/05/29 03:47:57;;;;;;;39.25;32.58;;;11.20;1.00;;;;;;5029659;28;20496;-62
2023/05/29 03:50:22;;;;;;;37.58;32.17;;;11.10;1.00;;;;;;5029830;28;20105;-62
2023/05/29 03:52:49;;;;;;;36.53;31.00;;;11.50;1.00;;;;;;5029639;28;20049;-62
2023/05/29 03:55:14;;;;;;;36.15;32.33;;;11.10;1.00;;;;;;5029735;28;20063;-62
2023/05/29 03:57:40;;;;;;;36.45;32.60;;;11.20;1.00;;;;;;5029405;28;20120;-62
2023/05/29 04:00:10;;;;;;;36.80;33.03;;;11.20;1.00;;;;;;5029139;28;20072;-62
2023/05/29 04:02:37;;;;;;;37.72;33.15;;;11.30;1.00;;;;;;5029561;28;20546;-62
2023/05/29 04:05:03;;;;;;;36.22;32.33;;;11.30;1.00;;;;;;5029460;28;20120;-62
2023/05/29 04:07:29;;;;;;;34.55;30.85;;;11.40;1.00;;;;;;5029978;28;20087;-62
2023/05/29 04:09:55;;;;;;;39.20;31.20;;;11.40;1.00;;;;;;5029550;28;20030;-62
2023/05/29 04:12:20;;;;;;;32.90;28.92;;;11.40;1.00;;;;;;5029345;28;20034;-62
2023/05/29 04:14:46;;;;;;;40.53;30.58;;;11.50;1.00;;;;;;5028513;28;20037;-62
2023/05/29 04:17:11;;;;;;;35.97;30.65;;;11.50;1.00;;;;;;5028991;28;20049;-62
2023/05/29 04:19:37;;;;;;;34.72;29.40;;;11.50;1.00;;;;;;5025750;28;20049;-62
2023/05/29 04:22:02;;;;;;;43.08;30.45;;;11.50;1.00;;;;;;5028566;28;20080;-62
2023/05/29 04:24:28;;;;;;;35.65;31.17;;;11.50;99.90;;;;;;5022476;28;20048;-62
2023/05/29 04:26:53;;;;;;;40.63;30.63;;;11.50;99.90;;;;;;5029670;28;20033;-62
2023/05/29 04:29:19;;;;;;;37.65;30.65;;;11.60;99.90;;;;;;5028939;28;20047;-62
2023/05/29 04:31:45;;;;;;;39.25;33.13;;;11.60;99.90;;;;;;5029306;28;20038;-62
2023/05/29 04:34:10;;;;;;;41.08;32.03;;;11.60;99.90;;;;;;5028777;28;20052;-62
2023/05/29 04:36:39;;;;;;;37.63;33.05;;;11.70;99.90;;;;;;5029159;28;20037;-62
2023/05/29 04:39:06;;;;;;;40.40;34.00;;;11.70;99.90;;;;;;5028759;28;20046;-62
2023/05/29 04:41:32;;;;;;;36.13;32.30;;;11.80;99.90;;;;;;5029185;28;20092;-62
2023/05/29 04:43:58;;;;;;;39.10;31.83;;;11.80;99.90;;;;;;5028046;28;20045;-62
2023/05/29 04:46:24;;;;;;;38.15;32.67;;;11.80;99.90;;;;;;5012196;28;20143;-62
2023/05/29 04:48:54;;;;;;;38.05;32.40;;;11.90;99.90;;;;;;5022717;28;20092;-62
2023/05/29 04:51:23;;;;;;;40.10;32.78;;;11.80;99.90;;;;;;5029367;28;20051;-62
2023/05/29 04:53:51;;;;;;;41.17;32.25;;;11.80;99.90;;;;;;5029535;28;20049;-62
2023/05/29 04:56:18;;;;;;;40.85;33.13;;;11.80;99.90;;;;;;5033268;28;20045;-62
2023/05/29 04:58:43;;;;;;;43.80;31.95;;;11.90;99.90;;;;;;5032580;28;20055;-62
2023/05/29 05:01:14;;;;;;;36.70;32.70;;;11.90;99.90;;;;;;5032877;28;20116;-63
2023/05/29 05:03:40;;;;;;;33.30;29.73;;;11.60;99.90;;;;;;5032777;28;20042;-62
2023/05/29 05:06:07;;;;;;;35.63;31.23;;;12.00;99.90;;;;;;5032480;28;20171;-62
2023/05/29 05:08:33;;;;;;;38.55;32.65;;;11.90;99.90;;;;;;5032794;28;20041;-62
2023/05/29 05:11:00;;;;;;;41.90;33.50;;;11.90;99.90;;;;;;5032808;28;20499;-62
2023/05/29 05:13:26;;;;;;;37.58;30.92;;;12.10;99.90;;;;;;5031914;28;20038;-62
2023/05/29 05:15:52;;;;;;;34.42;30.60;;;12.00;99.90;;;;;;5032653;28;20051;-62
2023/05/29 05:18:17;;;;;;;35.20;31.60;;;12.00;99.90;;;;;;5031409;28;20124;-62
2023/05/29 05:20:43;;;;;;;40.40;33.05;;;12.00;99.90;;;;;;5030975;28;20045;-62
2023/05/29 05:23:10;;;;;;;40.97;30.83;;;12.10;99.90;;;;;;5032425;28;20088;-62
2023/05/29 05:25:36;;;;;;;34.67;31.15;;;12.10;99.90;;;;;;5032742;28;20116;-62
2023/05/29 05:28:05;;;;;;;32.92;29.30;;;12.10;99.90;;;;;;5032650;28;20126;-62
2023/05/29 05:30:30;;;;;;;34.17;30.40;;;12.10;99.90;;;;;;5032476;28;20402;-62
2023/05/29 05:32:57;;;;;;;40.10;35.10;;;12.10;99.90;;;;;;5032462;28;20033;-62
2023/05/29 05:35:22;;;;;;;36.60;32.67;;;12.10;99.90;;;;;;5031870;28;20565;-62
2023/05/29 05:37:48;;;;;;;37.75;33.75;;;12.10;99.90;;;;;;5032690;28;20045;-62
2023/05/29 05:40:13;;;;;;;35.85;31.73;;;12.20;99.90;;;;;;5032318;28;20079;-62
2023/05/29 05:42:39;;;;;;;34.35;28.88;;;12.10;99.90;;;;;;5031509;28;20044;-62
2023/05/29 05:45:06;;;;;;;40.42;33.90;;;12.60;99.90;;;;;;5031360;28;20498;-62
2023/05/29 05:47:32;;;;;;;33.15;29.65;;;12.20;99.90;;;;;;5032002;28;20132;-62
2023/05/29 05:49:58;;;;;;;31.55;28.25;;;12.10;99.90;;;;;;5031559;28;20056;-62
2023/05/29 05:52:25;;;;;;;30.10;26.23;;;12.20;99.90;;;;;;5031535;28;20456;-62
2023/05/29 05:54:51;;;;;;;34.45;30.67;;;12.10;99.90;;;;;;5031146;28;20752;-62
2023/05/29 05:57:17;;;;;;;34.85;26.88;;;12.20;99.90;;;;;;5017001;28;20037;-62
2023/05/29 05:59:43;;;;;;;29.88;26.58;;;12.20;99.90;;;;;;5031507;28;20045;-62
2023/05/29 06:02:08;;;;;;;31.10;27.90;;;12.20;99.90;;;;;;5031183;28;20056;-62
2023/05/29 06:04:34;;;;;;;33.85;28.92;;;12.20;99.90;;;;;;5031109;28;20044;-62
2023/05/29 06:06:59;;;;;;;39.42;29.65;;;12.30;99.90;;;;;;5030721;28;20045;-62
2023/05/29 06:09:25;;;;;;;37.58;26.95;;;12.50;99.90;;;;;;5031605;28;20026;-62
2023/05/29 06:11:51;;;;;;;28.83;21.52;;;12.50;99.90;;;;;;5030033;28;20053;-62
2023/05/29 06:14:16;;;;;;;28.90;22.08;;;12.50;99.90;;;;;;5030269;28;20466;-62
2023/05/29 06:16:42;;;;;;;35.33;25.80;;;12.50;99.90;;;;;;5028953;28;20057;-62
2023/05/29 06:19:08;;;;;;;31.45;17.58;;;12.60;99.90;;;;;;5030505;28;20116;-63
2023/05/29 06:21:34;;;;;;;29.30;20.23;;;12.60;99.90;;;;;;5031010;28;20549;-62
2023/05/29 06:24:00;;;;;;;30.13;18.50;;;12.60;99.90;;;;;;5030927;28;20160;-62
2023/05/29 06:26:26;;;;;;;29.13;18.05;;;12.70;99.90;;;;;;5023383;28;20392;-62
2023/05/29 06:28:52;;;;;;;31.60;22.42;;;12.70;99.90;;;;;;5029888;28;20037;-62
2023/05/29 06:31:18;;;;;;;24.02;15.75;;;12.80;99.90;;;;;;5029069;28;20049;-62
2023/05/29 06:33:45;;;;;;;22.60;17.83;;;12.70;99.90;;;;;;5031686;28;20483;-62
2023/05/29 06:36:10;;;;;;;28.02;16.52;;;12.70;99.90;;;;;;5031364;28;20488;-62
2023/05/29 06:38:36;;;;;;;38.47;24.27;;;12.70;99.90;;;;;;5027932;28;20249;-62
2023/05/29 06:41:02;;;;;;;34.60;19.30;;;12.90;99.90;;;;;;5030102;28;20033;-62
2023/05/29 06:43:28;;;;;;;25.90;17.75;;;12.80;99.90;;;;;;5030500;28;20052;-62
2023/05/29 06:45:54;;;;;;;31.88;18.27;;;12.80;99.90;;;;;;5029276;28;20025;-64
2023/05/29 06:48:21;;;;;;;30.02;18.20;;;12.90;99.90;;;;;;5028540;28;20043;-63
2023/05/29 06:50:50;;;;;;;23.58;15.50;;;13.90;99.90;;;;;;5030319;28;20084;-62
2023/05/29 06:53:16;;;;;;;26.35;14.10;;;13.10;99.90;;;;;;5028808;28;20037;-63
2023/05/29 06:55:41;;;;;;;27.67;17.08;;;13.20;99.90;;;;;;5028693;28;20049;-63
2023/05/29 06:58:07;;;;;;;22.92;11.90;;;13.50;99.90;;;;;;5031127;28;20049;-63
2023/05/29 07:00:32;;;;;;;22.67;11.27;;;13.40;99.90;;;;;;5029588;28;20434;-62
2023/05/29 07:02:58;;;;;;;27.20;9.68;;;13.90;99.90;;;;;;5030020;28;20037;-62
2023/05/29 07:05:23;;;;;;;24.95;9.30;;;13.40;99.90;;;;;;5029872;28;20041;-62
2023/05/29 07:07:49;;;;;;;32.55;11.02;;;13.30;99.90;;;;;;5030259;28;20052;-63
2023/05/29 07:10:15;;;;;;;23.33;9.25;;;13.40;99.90;;;;;;5029668;28;20029;-62
2023/05/29 07:12:40;;;;;;;28.20;9.73;;;13.40;99.90;;;;;;5028224;28;20033;-63
2023/05/29 07:15:06;;;;;;;27.20;9.77;;;14.00;99.90;;;;;;5029733;28;20046;-63
2023/05/29 07:17:32;;;;;;;30.25;13.43;;;13.50;99.90;;;;;;5028756;28;20041;-63
2023/05/29 07:19:58;;;;;;;26.85;14.25;;;13.50;99.90;;;;;;5026212;28;20056;-63
2023/05/29 07:22:24;;;;;;;31.55;17.02;;;13.50;99.90;;;;;;5026727;28;20406;-62
2023/05/29 07:24:50;;;;;;;28.40;10.23;;;13.80;99.90;;;;;;5029268;28;20130;-63
2023/05/29 07:27:15;;;;;;;26.75;8.88;;;13.60;99.90;;;;;;5030032;28;20038;-63
2023/05/29 07:29:41;;;;;;;23.50;9.20;;;13.70;99.90;;;;;;5030139;28;20033;-63
2023/05/29 07:32:06;;;;;;;26.88;10.68;;;13.70;99.90;;;;;;5029911;28;20041;-63
2023/05/29 07:34:32;;;;;;;26.30;9.68;;;13.70;99.90;;;;;;5029477;28;20108;-63
2023/05/29 07:37:04;;;;;;;25.80;11.18;;;13.70;99.90;;;;;;5029891;28;20049;-63
2023/05/29 07:39:36;;;;;;;22.67;7.45;;;13.90;99.90;;;;;;5086478;28;20397;-63
2023/05/29 07:42:02;;;;;;;25.08;6.70;;;14.80;99.90;;;;;;5084840;28;20098;-63
2023/05/29 07:44:28;;;;;;;22.50;7.25;;;14.10;99.90;;;;;;5075112;28;20541;-63
2023/05/29 07:46:54;;;;;;;24.38;8.23;;;14.00;98.10;;;;;;5086350;28;20040;-63
2023/05/29 07:49:20;;;;;;;24.88;8.48;;;13.80;98.70;;;;;;5081537;28;20044;-63
2023/05/29 07:51:46;;;;;;;19.90;7.07;;;13.80;99.90;;;;;;5086084;28;20050;-63
2023/05/29 07:54:12;;;;;;;22.40;6.07;;;14.00;99.90;;;;;;5067882;28;20514;-63
2023/05/29 07:56:38;;;;;;;26.77;6.82;;;13.70;99.70;;;;;;5085389;28;20040;-63
2023/05/29 07:59:04;;;;;;;19.38;6.72;;;13.80;99.50;;;;;;5083074;28;20452;-63
2023/05/29 08:01:30;;;;;;;20.05;5.82;;;13.90;99.90;;;;;;5084711;28;20032;-63
2023/05/29 08:03:55;;;;;;;20.90;5.72;;;14.00;99.90;;;;;;5086074;28;20119;-63
2023/05/29 08:06:21;;;;;;;22.38;6.18;;;14.10;99.90;;;;;;5072652;28;20040;-63
2023/05/29 08:08:47;;;;;;;25.70;6.45;;;14.30;99.90;;;;;;5067408;28;20517;-63
2023/05/29 08:11:13;;;;;;;21.25;5.75;;;14.40;90.30;;;;;;5084394;28;20032;-63
2023/05/29 08:13:38;;;;;;;23.95;6.18;;;14.70;85.90;;;;;;5066697;28;20049;-64
2023/05/29 08:16:04;;;;;;;21.05;5.55;;;14.50;69.70;;;;;;5077484;28;20036;-63
2023/05/29 08:18:32;;;;;;;23.95;5.80;;;14.60;60.30;;;;;;5070133;28;20115;-63
2023/05/29 08:20:58;;;;;;;26.67;6.40;;;14.90;60.10;;;;;;5071953;28;20485;-63
2023/05/29 08:23:23;;;;;;;21.73;6.13;;;15.10;68.70;;;;;;5072683;28;20037;-63
2023/05/29 08:25:49;;;;;;;20.95;6.05;;;15.40;77.50;;;;;;5074758;28;20040;-64
2023/05/29 08:28:15;;;;;;;23.08;5.45;;;15.50;70.50;;;;;;5064628;28;20595;-63
2023/05/29 08:30:41;;;;;;;21.90;5.68;;;15.20;44.50;;;;;;5072356;28;20458;-63
2023/05/29 08:33:07;;;;;;;16.13;4.97;;;14.70;29.60;;;;;;5079460;28;20083;-63
2023/05/29 08:35:32;;;;;;;20.02;5.20;;;14.60;48.10;;;;;;5083942;28;20040;-63
2023/05/29 08:37:59;;;;;;;22.75;5.30;;;14.40;42.60;;;;;;5072409;28;20063;-64
2023/05/29 08:40:24;;;;;;;20.55;5.38;;;14.40;48.70;;;;;;5083218;28;20036;-63
2023/05/29 08:43:13;;;;;;;23.90;5.72;;;14.30;45.50;;;;;;5077577;28;20036;-64
2023/05/29 08:45:43;;;;;;;24.02;5.82;;;14.30;46.20;;;;;;5066720;28;20097;-65
2023/05/29 08:48:10;;;;;;;26.42;6.15;;;14.30;50.90;;;;;;5077533;28;20040;-65
2023/05/29 08:50:42;;;;;;;19.80;5.68;;;14.30;56.80;;;;;;5065715;28;20079;-65
2023/05/29 08:53:09;;;;;;;18.55;5.88;;;14.30;67.80;;;;;;5054543;28;20049;-64
2023/05/29 08:55:35;;;;;;;20.15;5.28;;;14.40;45.60;;;;;;5061329;28;20044;-64
2023/05/29 08:58:01;;;;;;;21.98;5.47;;;14.50;39.60;;;;;;5061473;28;20094;-63
2023/05/29 09:00:29;;;;;;;21.95;5.65;;;14.60;26.10;;;;;;5064381;28;20072;-63
2023/05/29 09:02:55;;;;;;;24.73;6.10;;;14.40;21.80;;;;;;5055918;28;20045;-63
2023/05/29 09:05:21;;;;;;;23.55;6.07;;;14.50;41.00;;;;;;5065226;28;20040;-63
2023/05/29 09:07:49;;;;;;;26.80;5.95;;;14.60;33.80;;;;;;5070531;28;20101;-63
2023/05/29 09:10:15;;;;;;;23.67;5.85;;;14.20;33.10;;;;;;5065664;28;20162;-63
2023/05/29 09:12:41;;;;;;;19.58;5.38;;;14.30;45.10;;;;;;5062495;28;20120;-63
2023/05/29 09:15:27;;;;;;;18.55;5.25;;;14.30;51.40;;;;;;5064683;28;20055;-65
2023/05/29 09:18:00;;;;;;;17.85;4.63;;;14.20;56.40;;;;;;5066829;28;20494;-63
2023/05/29 09:20:27;;;;;;;25.65;5.97;;;14.90;49.40;;;;;;5069981;28;20107;-63
2023/05/29 09:22:58;;;;;;;24.63;6.03;;;14.30;43.70;;;;;;5063719;28;20044;-63
2023/05/29 09:25:26;;;;;;;21.15;5.75;;;14.30;50.70;;;;;;5070540;28;20028;-63
2023/05/29 09:28:12;;;;;;;20.20;5.93;;;14.30;56.90;;;;;;5058695;28;20043;-64
2023/05/29 09:30:39;;;;;;;23.83;5.78;;;14.50;62.50;;;;;;5058793;28;20036;-63
2023/05/29 09:33:06;;;;;;;21.60;5.80;;;14.40;55.50;;;;;;5064355;28;20044;-63
2023/05/29 09:35:43;;;;;;;21.27;5.75;;;14.40;44.20;;;;;;5063163;28;20045;-63
2023/05/29 09:38:11;;;;;;;25.98;6.45;;;14.50;56.00;;;;;;5061782;28;20078;-63
2023/05/29 09:40:38;;;;;;;29.52;6.70;;;14.30;49.90;;;;;;5070863;28;20044;-63
2023/05/29 09:43:07;;;;;;;19.92;5.53;;;14.30;60.70;;;;;;5069937;28;20039;-63
2023/05/29 09:45:33;;;;;;;19.55;5.32;;;14.80;76.80;;;;;;5066686;28;20039;-63
2023/05/29 09:47:59;;;;;;;24.52;6.00;;;14.40;75.30;;;;;;5051645;28;20402;-63
2023/05/29 09:50:28;;;;;;;26.13;6.07;;;14.40;66.20;;;;;;5055015;28;20047;-63
2023/05/29 09:52:57;;;;;;;21.15;6.18;;;14.30;53.60;;;;;;5070001;28;20044;-63
2023/05/29 09:55:26;;;;;;;25.98;6.07;;;14.30;69.50;;;;;;5062450;28;20036;-63
2023/05/29 09:57:54;;;;;;;27.25;6.35;;;14.20;45.40;;;;;;5049922;28;20067;-63
2023/05/29 10:00:21;;;;;;;20.52;5.22;;;14.10;43.90;;;;;;5061373;28;20037;-63
2023/05/29 10:02:48;;;;;;;26.98;5.63;;;14.10;60.20;;;;;;5064156;28;20124;-63
2023/05/29 10:05:15;;;;;;;25.20;6.90;;;14.40;65.90;;;;;;5066532;28;20127;-63
2023/05/29 10:07:46;;;;;;;23.38;5.88;;;14.10;94.50;;;;;;5053253;28;20049;-63
2023/05/29 10:10:14;;;;;;;21.77;6.18;;;14.20;93.70;;;;;;5056038;28;20066;-63
2023/05/29 10:12:44;;;;;;;23.83;6.10;;;14.30;84.80;;;;;;5051748;28;20380;-63
2023/05/29 10:15:15;;;;;;;27.67;5.85;;;15.10;92.40;;;;;;5065499;28;20123;-63
2023/05/29 10:18:01;;;;;;;22.88;5.30;;;14.60;82.80;;;;;;5065363;28;20453;-63
2023/05/29 10:20:28;;;;;;;19.02;5.32;;;14.80;91.90;;;;;;5060387;28;20458;-63
2023/05/29 10:22:56;;;;;;;25.25;6.25;;;14.70;71.20;;;;;;5070224;28;20083;-63
2023/05/29 10:25:24;;;;;;;17.20;5.30;;;14.70;64.00;;;;;;5066130;28;20067;-63
2023/05/29 10:27:50;;;;;;;20.60;5.80;;;14.80;60.60;;;;;;5050752;28;20532;-63
2023/05/29 10:31:04;;;;;;;26.00;5.05;;;14.80;52.50;;;;;;5059964;28;20115;-64
2023/05/29 10:34:09;;;;;;;22.60;5.75;;;14.90;57.20;;;;;;5047543;28;20088;-63
2023/05/29 10:36:46;;;;;;;20.10;5.45;;;14.90;53.60;;;;;;5046079;28;20497;-63
2023/05/29 10:39:13;;;;;;;26.80;6.03;;;14.90;35.00;;;;;;5050806;28;20049;-63
2023/05/29 10:41:41;;;;;;;23.73;6.22;;;14.80;42.00;;;;;;5068093;28;20041;-63
2023/05/29 10:44:31;;;;;;;26.70;5.47;;;14.80;35.30;;;;;;5068272;28;20075;-63
2023/05/29 10:47:00;;;;;;;25.27;5.53;;;15.00;44.10;;;;;;5052534;28;20041;-63
2023/05/29 10:49:26;;;;;;;24.58;5.75;;;15.00;43.60;;;;;;5060808;28;20045;-63
2023/05/29 10:51:52;;;;;;;26.05;5.95;;;14.90;32.10;;;;;;5051914;28;20044;-63
2023/05/29 10:54:25;;;;;;;24.25;6.10;;;15.00;46.90;;;;;;5056973;28;20040;-63
2023/05/29 10:57:01;;;;;;;19.52;5.05;;;15.00;53.40;;;;;;5065653;28;20460;-63
2023/05/29 10:59:28;;;;;;;24.02;5.53;;;15.00;55.10;;;;;;5068970;28;20419;-63
2023/05/29 11:01:55;;;;;;;18.15;5.15;;;14.90;49.10;;;;;;5068147;28;20036;-63
2023/05/29 11:04:20;;;;;;;21.90;5.05;;;15.00;55.50;;;;;;5055560;28;20121;-63
2023/05/29 11:06:47;;;;;;;20.00;5.28;;;14.80;52.10;;;;;;5062120;28;20147;-63
2023/05/29 11:09:35;;;;;;;19.15;5.03;;;14.70;45.60;;;;;;5055910;28;20032;-63
2023/05/29 11:12:32;;;;;;;21.70;5.50;;;14.80;42.10;;;;;;5064324;28;20040;-63
2023/05/29 11:15:13;;;;;;;20.48;5.00;;;15.10;50.40;;;;;;5055382;28;20045;-63
2023/05/29 11:17:38;;;;;;;19.27;4.40;;;14.80;64.50;;;;;;5058820;28;20048;-63
2023/05/29 11:20:15;;;;;;;21.42;5.13;;;15.00;88.90;;;;;;5057246;28;20041;-63
2023/05/29 11:22:58;;;;;;;22.25;5.05;;;15.00;84.80;;;;;;5067782;28;20048;-63
2023/05/29 11:25:25;;;;;;;15.90;4.80;;;15.00;74.10;;;;;;5053635;28;20036;-63
2023/05/29 11:27:54;;;;;;;24.73;5.90;;;15.00;81.90;;;;;;5069391;28;20043;-63
2023/05/29 11:30:20;;;;;;;22.00;5.22;;;15.10;86.00;;;;;;5062487;28;20048;-63
2023/05/29 11:32:47;;;;;;;22.75;5.53;;;15.30;85.80;;;;;;5067361;28;20066;-63
2023/05/29 11:35:13;;;;;;;29.85;5.90;;;15.30;61.50;;;;;;5053687;28;20045;-63
2023/05/29 11:37:42;;;;;;;20.65;5.68;;;15.20;56.60;;;;;;5057519;28;20085;-62
2023/05/29 11:40:09;;;;;;;23.00;5.70;;;15.20;59.90;;;;;;5052238;28;20067;-62
2023/05/29 11:42:35;;;;;;;17.92;4.82;;;15.20;37.90;;;;;;5058992;28;20082;-61
2023/05/29 11:45:14;;;;;;;19.10;5.05;;;15.20;42.80;;;;;;5055661;28;20501;-61
2023/05/29 11:47:53;;;;;;;18.38;5.03;;;15.10;47.90;;;;;;5060682;28;20128;-61
2023/05/29 11:50:23;;;;;;;18.23;5.03;;;15.20;51.10;;;;;;5058731;28;20410;-61
2023/05/29 11:52:49;;;;;;;17.50;5.13;;;15.20;35.40;;;;;;5056279;28;20533;-61
2023/05/29 11:55:14;;;;;;;16.90;4.22;;;15.20;47.20;;;;;;5055738;28;20029;-61
2023/05/29 11:57:40;;;;;;;25.83;5.88;;;15.30;56.10;;;;;;5063920;28;20098;-61
2023/05/29 12:00:07;;;;;;;19.23;5.05;;;15.20;26.00;;;;;;5065540;28;21271;-61
2023/05/29 12:02:33;;;;;;;21.85;4.85;;;15.20;29.30;;;;;;5064166;28;20490;-61
2023/05/29 12:05:02;;;;;;;24.40;5.70;;;15.40;46.70;;;;;;5064551;28;20099;-61
2023/05/29 12:07:28;;;;;;;15.73;4.47;;;15.30;30.50;;;;;;5050619;28;20184;-61
2023/05/29 12:09:57;;;;;;;18.15;4.68;;;15.20;24.20;;;;;;5056059;28;20112;-60
2023/05/29 12:12:23;;;;;;;16.55;5.45;;;15.20;22.80;;;;;;5052504;28;20044;-61
2023/05/29 12:14:53;;;;;;;20.58;5.00;;;15.10;38.80;;;;;;5064648;28;20095;-61
2023/05/29 12:17:20;;;;;;;16.90;4.70;;;15.00;38.90;;;;;;5057211;28;20111;-60
2023/05/29 12:19:46;;;;;;;19.27;5.00;;;15.10;26.40;;;;;;5057388;28;20065;-61
2023/05/29 12:22:11;;;;;;;14.38;4.82;;;15.20;32.40;;;;;;5059213;28;20058;-60
2023/05/29 12:24:37;;;;;;;21.90;4.78;;;15.10;31.60;;;;;;5057236;28;20029;-60
2023/05/29 12:27:07;;;;;;;26.27;5.70;;;15.10;28.50;;;;;;5055671;28;20037;-61
2023/05/29 12:29:35;;;;;;;19.58;4.75;;;15.20;58.80;;;;;;5054090;28;20130;-60
2023/05/29 12:32:01;;;;;;;14.98;4.22;;;15.30;51.10;;;;;;5070476;28;20041;-61
2023/05/29 12:34:34;;;;;;;15.70;4.30;;;15.20;29.60;;;;;;5055659;28;20044;-61
2023/05/29 12:37:11;;;;;;;16.98;4.75;;;15.20;17.60;;;;;;5061674;28;20186;-61